Time;durP1;ratioP1;P1;durP2;ratioP2;P2;SDS_P1;SDS_P2;PMS_P1;PMS_P2;Temp;Humidity;BMP_temperature;BMP_pressure;BME280_temperature;BME280_humidity;BME280_pressure;Samples;Min_cycle;Max_cycle;Signal;HPM_P1;HPM_P2
2022/01/31 00:02:08;;;;;;;5.23;2.57;;;;;;;;;;5007248;28;20246;-66
2022/01/31 00:04:44;;;;;;;4.20;2.17;;;;;;;;;;5011643;28;20219;-66
2022/01/31 00:07:15;;;;;;;4.70;2.70;;;;;;;;;;5003335;28;20204;-66
2022/01/31 00:09:50;;;;;;;5.43;2.77;;;;;;;;;;5003963;28;20224;-66
2022/01/31 00:12:33;;;;;;;5.43;2.67;;;;;;;;;;5005308;28;20528;-66
2022/01/31 00:15:05;;;;;;;5.70;2.60;;;;;;;;;;5004044;28;20212;-66
2022/01/31 00:17:33;;;;;;;5.20;2.40;;;;;;;;;;5003380;28;21869;-67
2022/01/31 00:20:03;;;;;;;4.57;3.27;;;;;;;;;;5006700;28;20199;-66
2022/01/31 00:22:34;;;;;;;4.07;2.20;;;;;;;;;;5000537;28;20239;-66
2022/01/31 00:25:04;;;;;;;5.43;2.40;;;;;;;;;;5004048;28;20258;-66
2022/01/31 00:27:33;;;;;;;5.17;2.70;;;;;;;;;;4989344;28;20234;-66
2022/01/31 00:30:05;;;;;;;4.30;2.20;;;;;;;;;;5007511;28;20278;-66
2022/01/31 00:32:36;;;;;;;4.60;2.27;;;;;;;;;;5026995;28;20783;-66
2022/01/31 00:35:04;;;;;;;5.60;3.20;;;;;;;;;;5001356;28;20404;-66
2022/01/31 00:37:35;;;;;;;3.90;2.30;;;;;;;;;;4999630;28;20261;-66
2022/01/31 00:40:08;;;;;;;3.70;2.43;;;;;;;;;;4995806;28;20210;-66
2022/01/31 00:42:37;;;;;;;4.57;2.40;;;;;;;;;;4996312;28;20202;-66
2022/01/31 00:45:28;;;;;;;4.37;2.80;;;;;;;;;;4979030;28;20192;-66
2022/01/31 00:48:01;;;;;;;5.33;2.60;;;;;;;;;;4984361;28;20665;-67
2022/01/31 00:50:38;;;;;;;5.00;2.60;;;;;;;;;;4997745;28;20216;-67
2022/01/31 00:53:09;;;;;;;4.97;2.70;;;;;;;;;;4997626;28;20211;-66
2022/01/31 00:55:40;;;;;;;3.97;2.50;;;;;;;;;;4988258;28;20192;-66
2022/01/31 00:58:16;;;;;;;4.67;2.80;;;;;;;;;;5003093;28;20215;-66
2022/01/31 01:00:45;;;;;;;5.53;2.47;;;;;;;;;;5006446;28;20207;-66
2022/01/31 01:03:16;;;;;;;3.97;2.10;;;;;;;;;;5007428;28;20403;-66
2022/01/31 01:05:46;;;;;;;4.33;2.13;;;;;;;;;;5003590;28;20204;-66
2022/01/31 01:08:13;;;;;;;6.20;2.83;;;;;;;;;;5008019;28;20200;-66
2022/01/31 01:10:41;;;;;;;5.23;2.80;;;;;;;;;;4989978;28;20230;-66
2022/01/31 01:13:12;;;;;;;4.10;2.60;;;;;;;;;;5005503;28;20214;-67
2022/01/31 01:15:44;;;;;;;5.33;2.90;;;;;;;;;;5022801;28;20196;-66
2022/01/31 01:18:11;;;;;;;6.10;3.07;;;;;;;;;;5009568;28;20199;-66
2022/01/31 01:20:42;;;;;;;5.60;2.43;;;;;;;;;;5006608;28;20634;-66
2022/01/31 01:23:18;;;;;;;4.10;2.20;;;;;;;;;;5005277;28;20204;-66
2022/01/31 01:25:51;;;;;;;5.47;3.07;;;;;;;;;;5007207;28;20265;-66
2022/01/31 01:28:27;;;;;;;3.53;2.00;;;;;;;;;;5012587;28;20217;-66
2022/01/31 01:30:59;;;;;;;4.27;2.20;;;;;;;;;;5003499;28;20227;-67
2022/01/31 01:33:38;;;;;;;3.73;2.40;;;;;;;;;;5007682;28;20215;-66
2022/01/31 01:36:10;;;;;;;4.67;2.40;;;;;;;;;;5007965;28;20221;-66
2022/01/31 01:38:42;;;;;;;4.93;2.93;;;;;;;;;;5010822;28;20219;-66
2022/01/31 01:41:10;;;;;;;5.53;2.57;;;;;;;;;;5003504;28;20278;-67
2022/01/31 01:43:41;;;;;;;3.97;2.67;;;;;;;;;;5016536;28;20293;-66
2022/01/31 01:46:10;;;;;;;4.43;2.37;;;;;;;;;;5026825;28;20206;-66
2022/01/31 01:48:42;;;;;;;5.23;2.47;;;;;;;;;;5026188;28;20665;-66
2022/01/31 01:51:14;;;;;;;6.23;3.23;;;;;;;;;;5024127;28;20222;-65
2022/01/31 01:53:46;;;;;;;4.53;2.83;;;;;;;;;;5025561;28;20333;-65
2022/01/31 01:56:15;;;;;;;4.20;2.50;;;;;;;;;;5029581;28;20618;-65
2022/01/31 01:58:48;;;;;;;4.40;2.23;;;;;;;;;;5021057;28;20223;-65
2022/01/31 02:01:20;;;;;;;3.97;2.20;;;;;;;;;;5024878;28;20613;-65
2022/01/31 02:03:51;;;;;;;4.90;2.67;;;;;;;;;;5028544;28;20205;-65
2022/01/31 02:06:24;;;;;;;4.17;1.87;;;;;;;;;;5018658;28;20203;-65
2022/01/31 02:08:52;;;;;;;6.80;2.80;;;;;;;;;;5024056;28;20203;-65
2022/01/31 02:11:35;;;;;;;5.27;2.33;;;;;;;;;;5026674;28;20307;-65
2022/01/31 02:14:03;;;;;;;4.27;2.27;;;;;;;;;;5031820;28;20199;-65
2022/01/31 02:16:33;;;;;;;4.73;2.53;;;;;;;;;;5027960;28;20225;-65
2022/01/31 02:19:02;;;;;;;4.70;2.20;;;;;;;;;;5021965;28;20199;-65
2022/01/31 02:21:31;;;;;;;4.73;2.50;;;;;;;;;;5022529;28;20643;-65
2022/01/31 02:24:02;;;;;;;4.33;2.60;;;;;;;;;;5028837;28;20199;-64
2022/01/31 02:26:32;;;;;;;6.37;2.47;;;;;;;;;;5020823;28;20207;-64
2022/01/31 02:29:02;;;;;;;4.17;2.40;;;;;;;;;;5020241;28;20183;-65
2022/01/31 02:31:32;;;;;;;3.50;1.90;;;;;;;;;;5025188;28;20692;-65
2022/01/31 02:34:03;;;;;;;5.67;2.23;;;;;;;;;;5024050;28;20556;-64
2022/01/31 02:36:34;;;;;;;2.97;1.90;;;;;;;;;;5025833;28;20205;-65
2022/01/31 02:39:04;;;;;;;3.90;2.17;;;;;;;;;;5024182;28;20510;-64
2022/01/31 02:41:32;;;;;;;3.93;2.30;;;;;;;;;;5026334;28;20215;-65
2022/01/31 02:44:00;;;;;;;7.70;2.10;;;;;;;;;;4996950;28;20235;-65
2022/01/31 02:46:33;;;;;;;4.67;2.27;;;;;;;;;;5004675;28;20215;-65
2022/01/31 02:49:03;;;;;;;4.73;2.23;;;;;;;;;;5003542;28;20279;-64
2022/01/31 02:51:33;;;;;;;3.50;1.93;;;;;;;;;;5006300;28;20234;-64
2022/01/31 02:54:03;;;;;;;3.83;2.10;;;;;;;;;;5004847;28;20278;-64
2022/01/31 02:56:34;;;;;;;4.50;2.17;;;;;;;;;;4986532;28;20521;-64
2022/01/31 02:59:04;;;;;;;4.87;1.93;;;;;;;;;;5003436;28;20207;-64
2022/01/31 03:01:37;;;;;;;3.87;2.00;;;;;;;;;;5005504;28;20199;-64
2022/01/31 03:04:09;;;;;;;2.97;1.53;;;;;;;;;;5006341;28;20253;-64
2022/01/31 03:06:38;;;;;;;4.23;2.43;;;;;;;;;;5004131;28;20199;-64
2022/01/31 03:09:11;;;;;;;4.70;2.10;;;;;;;;;;5001499;28;20200;-64
2022/01/31 03:11:43;;;;;;;3.07;1.57;;;;;;;;;;5006513;28;20223;-65
2022/01/31 03:14:18;;;;;;;3.33;2.00;;;;;;;;;;5006456;28;20583;-65
2022/01/31 03:16:50;;;;;;;3.27;2.00;;;;;;;;;;5006186;28;20206;-65
2022/01/31 03:19:22;;;;;;;3.00;1.80;;;;;;;;;;5004110;28;20205;-64
2022/01/31 03:21:54;;;;;;;3.90;2.17;;;;;;;;;;4987351;28;20249;-64
2022/01/31 03:24:26;;;;;;;2.93;2.07;;;;;;;;;;5003855;28;20200;-64
2022/01/31 03:26:58;;;;;;;3.37;1.40;;;;;;;;;;5001041;28;20207;-65
2022/01/31 03:29:29;;;;;;;3.73;1.87;;;;;;;;;;5006350;28;20255;-65
2022/01/31 03:31:59;;;;;;;2.60;1.83;;;;;;;;;;5006831;28;20219;-65
2022/01/31 03:34:29;;;;;;;3.13;1.83;;;;;;;;;;5002892;28;20219;-64
2022/01/31 03:37:00;;;;;;;2.80;1.57;;;;;;;;;;5005046;28;20726;-64
2022/01/31 03:39:30;;;;;;;2.87;1.80;;;;;;;;;;5006412;28;20378;-64
2022/01/31 03:42:02;;;;;;;3.13;2.03;;;;;;;;;;4989169;28;20199;-64
2022/01/31 03:44:33;;;;;;;4.17;2.03;;;;;;;;;;5023105;28;20242;-64
2022/01/31 03:47:04;;;;;;;2.67;1.73;;;;;;;;;;5028250;28;20215;-64
2022/01/31 03:49:39;;;;;;;3.93;1.60;;;;;;;;;;5026480;28;20216;-64
2022/01/31 03:52:12;;;;;;;2.70;1.60;;;;;;;;;;5027865;28;20253;-65
2022/01/31 03:54:41;;;;;;;3.03;1.80;;;;;;;;;;5036796;28;20199;-65
2022/01/31 03:57:17;;;;;;;4.20;1.97;;;;;;;;;;5025312;28;20218;-64
2022/01/31 03:59:52;;;;;;;3.40;1.97;;;;;;;;;;5027087;28;20203;-65
2022/01/31 04:02:23;;;;;;;2.10;1.50;;;;;;;;;;5026149;28;20194;-65
2022/01/31 04:04:55;;;;;;;3.07;1.53;;;;;;;;;;5023642;28;20290;-65
2022/01/31 04:07:26;;;;;;;2.60;1.50;;;;;;;;;;5022382;28;20215;-65
2022/01/31 04:09:55;;;;;;;2.50;1.70;;;;;;;;;;5025350;28;20222;-65
2022/01/31 04:12:25;;;;;;;1.70;1.40;;;;;;;;;;5024170;28;20695;-65
2022/01/31 04:14:56;;;;;;;3.77;1.73;;;;;;;;;;5009316;28;20210;-65
2022/01/31 04:17:25;;;;;;;2.90;1.50;;;;;;;;;;5023226;28;20210;-65
2022/01/31 04:19:55;;;;;;;2.33;1.40;;;;;;;;;;5028677;28;20242;-65
2022/01/31 04:22:29;;;;;;;3.17;1.50;;;;;;;;;;5027394;28;20590;-65
2022/01/31 04:25:05;;;;;;;3.30;1.60;;;;;;;;;;5022887;28;20622;-65
2022/01/31 04:27:45;;;;;;;2.50;1.33;;;;;;;;;;5025595;28;20817;-65
2022/01/31 04:30:16;;;;;;;2.50;1.37;;;;;;;;;;5026117;28;20215;-65
2022/01/31 04:32:46;;;;;;;2.50;1.50;;;;;;;;;;5025573;28;20611;-65
2022/01/31 04:35:16;;;;;;;3.67;1.57;;;;;;;;;;5034766;28;20229;-65
2022/01/31 04:37:48;;;;;;;1.80;1.23;;;;;;;;;;5031349;28;20199;-65
2022/01/31 04:40:19;;;;;;;3.37;1.40;;;;;;;;;;5029063;28;20298;-65
2022/01/31 04:42:47;;;;;;;2.10;1.40;;;;;;;;;;5027569;28;20222;-65
2022/01/31 04:45:18;;;;;;;2.40;1.53;;;;;;;;;;5018309;28;20266;-65
2022/01/31 04:47:49;;;;;;;2.43;1.17;;;;;;;;;;5028274;28;20207;-65
2022/01/31 04:50:18;;;;;;;3.40;1.40;;;;;;;;;;5028501;28;20195;-65
2022/01/31 04:52:59;;;;;;;3.60;1.63;;;;;;;;;;5029298;28;20230;-65
2022/01/31 04:55:30;;;;;;;2.17;1.30;;;;;;;;;;5028627;28;20222;-65
2022/01/31 04:58:02;;;;;;;2.17;1.57;;;;;;;;;;5026841;28;20219;-65
2022/01/31 05:00:34;;;;;;;3.17;1.47;;;;;;;;;;5032411;28;20238;-65
2022/01/31 05:03:11;;;;;;;2.47;1.20;;;;;;;;;;5013772;28;20233;-65
2022/01/31 05:05:49;;;;;;;2.80;1.60;;;;;;;;;;5035707;28;20242;-65
2022/01/31 05:08:24;;;;;;;3.47;1.13;;;;;;;;;;5029483;28;20191;-65
2022/01/31 05:10:52;;;;;;;2.23;1.17;;;;;;;;;;5037952;28;20222;-65
2022/01/31 05:13:21;;;;;;;2.40;1.27;;;;;;;;;;5029114;28;20253;-65
2022/01/31 05:15:53;;;;;;;2.43;1.33;;;;;;;;;;5043444;28;20639;-65
2022/01/31 05:18:29;;;;;;;4.10;1.63;;;;;;;;;;5037465;28;20217;-65
2022/01/31 05:20:59;;;;;;;2.67;1.30;;;;;;;;;;5023042;28;20276;-65
2022/01/31 05:23:29;;;;;;;3.23;1.30;;;;;;;;;;5037751;28;20870;-65
2022/01/31 05:26:02;;;;;;;2.97;1.10;;;;;;;;;;5028569;28;20202;-65
2022/01/31 05:28:31;;;;;;;5.27;1.50;;;;;;;;;;5029309;28;20199;-65
2022/01/31 05:31:01;;;;;;;5.00;2.03;;;;;;;;;;5010076;28;20207;-65
2022/01/31 05:33:31;;;;;;;5.27;1.77;;;;;;;;;;5034965;28;20238;-65
2022/01/31 05:36:02;;;;;;;4.00;1.60;;;;;;;;;;5028172;28;20380;-66
2022/01/31 05:38:39;;;;;;;3.97;1.50;;;;;;;;;;5011897;28;20203;-66
2022/01/31 05:41:18;;;;;;;3.93;1.80;;;;;;;;;;5023977;28;20202;-65
2022/01/31 05:43:50;;;;;;;3.60;1.50;;;;;;;;;;5010472;28;20240;-65
2022/01/31 05:46:22;;;;;;;4.87;1.80;;;;;;;;;;5028193;28;20219;-66
2022/01/31 05:48:51;;;;;;;4.23;1.70;;;;;;;;;;5035992;28;20576;-65
2022/01/31 05:51:21;;;;;;;3.90;1.50;;;;;;;;;;5027140;28;20520;-65
2022/01/31 05:53:52;;;;;;;3.73;1.43;;;;;;;;;;5028989;28;20220;-65
2022/01/31 05:56:23;;;;;;;3.53;1.67;;;;;;;;;;5011994;28;20206;-66
2022/01/31 05:58:55;;;;;;;4.30;1.60;;;;;;;;;;5025179;28;20659;-65
2022/01/31 06:01:25;;;;;;;3.87;1.30;;;;;;;;;;5028170;28;20280;-65
2022/01/31 06:03:58;;;;;;;3.13;1.30;;;;;;;;;;5031548;28;20278;-65
2022/01/31 06:06:29;;;;;;;5.07;1.50;;;;;;;;;;5027204;28;20273;-66
2022/01/31 06:09:05;;;;;;;6.97;2.03;;;;;;;;;;5018878;28;20207;-65
2022/01/31 06:11:34;;;;;;;155.40;23.17;;;;;;;;;;5027622;28;20214;-64
2022/01/31 06:14:02;;;;;;;126.03;21.53;;;;;;;;;;5026156;28;20629;-64
2022/01/31 06:16:31;;;;;;;80.43;16.83;;;;;;;;;;5009636;28;20203;-64
2022/01/31 06:19:05;;;;;;;76.20;14.87;;;;;;;;;;5017871;28;20206;-64
2022/01/31 06:21:36;;;;;;;69.23;14.00;;;;;;;;;;5019995;28;20222;-64
2022/01/31 06:24:10;;;;;;;47.37;10.73;;;;;;;;;;5026106;28;20202;-64
2022/01/31 06:26:45;;;;;;;41.27;10.13;;;;;;;;;;5007488;28;20680;-64
2022/01/31 06:29:16;;;;;;;37.50;8.27;;;;;;;;;;5008820;28;20199;-63
2022/01/31 06:31:46;;;;;;;28.30;7.80;;;;;;;;;;5025677;28;20578;-64
2022/01/31 06:34:14;;;;;;;29.03;7.50;;;;;;;;;;5023756;28;20309;-64
2022/01/31 06:36:48;;;;;;;26.63;5.47;;;;;;;;;;5029027;28;20699;-64
2022/01/31 06:39:21;;;;;;;21.57;5.77;;;;;;;;;;5025311;28;20600;-64
2022/01/31 06:41:53;;;;;;;22.07;5.60;;;;;;;;;;5027119;28;20264;-64
2022/01/31 06:44:24;;;;;;;18.37;5.00;;;;;;;;;;5025894;28;20231;-64
2022/01/31 06:46:55;;;;;;;16.97;4.60;;;;;;;;;;5022830;28;20211;-64
2022/01/31 06:49:27;;;;;;;10.83;3.30;;;;;;;;;;5028721;28;20241;-64
2022/01/31 06:51:58;;;;;;;11.33;3.90;;;;;;;;;;5034795;28;20203;-65
2022/01/31 06:54:27;;;;;;;14.63;3.83;;;;;;;;;;5041326;28;20195;-63
2022/01/31 06:56:58;;;;;;;12.90;3.83;;;;;;;;;;5017576;28;20211;-64
2022/01/31 06:59:30;;;;;;;12.50;3.27;;;;;;;;;;5040854;28;20519;-64
2022/01/31 07:02:02;;;;;;;10.27;3.00;;;;;;;;;;5025399;28;20214;-64
2022/01/31 07:04:35;;;;;;;8.70;2.80;;;;;;;;;;5023941;28;20261;-64
2022/01/31 07:07:07;;;;;;;7.33;2.83;;;;;;;;;;5031803;28;20796;-65
2022/01/31 07:09:39;;;;;;;9.27;2.57;;;;;;;;;;5025764;28;20219;-66
2022/01/31 07:12:12;;;;;;;7.37;2.43;;;;;;;;;;5038561;28;20309;-63
2022/01/31 07:14:44;;;;;;;6.97;2.20;;;;;;;;;;5032162;28;20590;-62
2022/01/31 07:17:11;;;;;;;6.50;2.50;;;;;;;;;;5016057;28;20243;-62
2022/01/31 07:19:44;;;;;;;9.67;2.70;;;;;;;;;;5026300;28;20199;-62
2022/01/31 07:22:18;;;;;;;10.47;2.70;;;;;;;;;;5032070;28;20222;-63
2022/01/31 07:25:22;;;;;;;9.50;2.20;;;;;;;;;;5019335;28;20296;-64
2022/01/31 07:27:51;;;;;;;6.10;2.33;;;;;;;;;;5024090;28;20207;-62
2022/01/31 07:30:40;;;;;;;5.87;2.20;;;;;;;;;;5024084;28;20270;-63
2022/01/31 07:33:21;;;;;;;7.33;2.30;;;;;;;;;;5025391;28;20257;-65
2022/01/31 07:36:06;;;;;;;5.43;1.90;;;;;;;;;;5038700;28;20195;-63
2022/01/31 07:38:39;;;;;;;7.07;2.33;;;;;;;;;;5027338;28;20195;-64
2022/01/31 07:41:14;;;;;;;5.43;1.97;;;;;;;;;;5029610;28;20225;-65
2022/01/31 07:43:53;;;;;;;4.80;2.20;;;;;;;;;;5029906;28;20337;-65
2022/01/31 07:46:25;;;;;;;6.60;2.00;;;;;;;;;;5030222;28;20301;-65
2022/01/31 07:48:57;;;;;;;3.50;1.70;;;;;;;;;;5022157;28;20194;-65
2022/01/31 07:51:29;;;;;;;4.73;2.03;;;;;;;;;;5028965;28;20222;-65
2022/01/31 07:54:00;;;;;;;5.00;1.70;;;;;;;;;;5026864;28;20322;-65
2022/01/31 07:56:29;;;;;;;5.57;1.97;;;;;;;;;;5025210;28;20195;-65
2022/01/31 07:59:02;;;;;;;6.03;2.37;;;;;;;;;;5024152;28;20223;-65
2022/01/31 08:01:32;;;;;;;6.87;1.97;;;;;;;;;;5027154;28;20209;-65
2022/01/31 08:04:01;;;;;;;4.30;1.53;;;;;;;;;;5029439;28;20284;-65
2022/01/31 08:06:33;;;;;;;8.43;1.90;;;;;;;;;;5028403;28;20886;-65
2022/01/31 08:09:07;;;;;;;4.13;2.03;;;;;;;;;;5022737;28;20229;-65
2022/01/31 08:11:39;;;;;;;4.30;2.17;;;;;;;;;;5012935;28;20198;-63
2022/01/31 08:14:10;;;;;;;5.43;2.00;;;;;;;;;;5027254;28;20806;-62
2022/01/31 08:16:39;;;;;;;5.30;2.07;;;;;;;;;;5034515;28;20194;-64
2022/01/31 08:19:10;;;;;;;6.17;2.07;;;;;;;;;;5028586;28;20192;-64
2022/01/31 08:22:04;;;;;;;5.67;2.40;;;;;;;;;;5027478;28;20206;-62
2022/01/31 08:24:36;;;;;;;4.60;2.13;;;;;;;;;;5029557;28;20214;-62
2022/01/31 08:27:09;;;;;;;4.13;1.57;;;;;;;;;;5021870;28;20211;-65
2022/01/31 08:29:41;;;;;;;7.23;2.10;;;;;;;;;;5027865;28;20268;-64
2022/01/31 08:32:33;;;;;;;10.00;1.90;;;;;;;;;;5029368;28;20230;-62
2022/01/31 08:37:54;;;;;;;7.93;2.33;;;;;;;;;;5024812;28;20200;-65
2022/01/31 08:40:35;;;;;;;6.27;1.63;;;;;;;;;;5024907;28;20657;-65
2022/01/31 08:43:08;;;;;;;5.73;1.67;;;;;;;;;;5024469;28;20210;-65
2022/01/31 08:45:37;;;;;;;7.10;2.10;;;;;;;;;;5009389;28;20231;-63
2022/01/31 08:48:08;;;;;;;5.43;2.00;;;;;;;;;;5009596;28;20511;-63
2022/01/31 08:50:41;;;;;;;6.43;2.70;;;;;;;;;;5020098;28;20257;-62
2022/01/31 08:53:15;;;;;;;5.97;2.23;;;;;;;;;;5001984;28;20231;-62
2022/01/31 08:55:56;;;;;;;7.10;2.63;;;;;;;;;;5001368;28;20204;-65
2022/01/31 08:58:25;;;;;;;7.67;2.50;;;;;;;;;;5003751;28;20694;-64
2022/01/31 09:01:06;;;;;;;5.70;1.97;;;;;;;;;;5007803;28;20196;-65
2022/01/31 09:06:23;;;;;;;7.17;2.80;;;;;;;;;;5007137;28;20540;-61
2022/01/31 09:08:54;;;;;;;6.57;2.43;;;;;;;;;;5005662;28;20242;-61
2022/01/31 09:11:23;;;;;;;6.73;2.60;;;;;;;;;;5000006;28;20238;-61
2022/01/31 09:13:58;;;;;;;8.07;2.53;;;;;;;;;;5008316;28;20227;-61
2022/01/31 09:16:30;;;;;;;7.43;2.30;;;;;;;;;;5003866;28;20196;-61
2022/01/31 09:19:02;;;;;;;9.03;3.03;;;;;;;;;;4995315;28;20207;-61
2022/01/31 09:21:42;;;;;;;8.37;2.50;;;;;;;;;;5005661;28;20847;-63
2022/01/31 09:24:12;;;;;;;6.90;2.70;;;;;;;;;;5007944;28;20200;-63
2022/01/31 09:26:48;;;;;;;8.27;3.07;;;;;;;;;;5001395;28;20210;-60
2022/01/31 09:29:18;;;;;;;8.60;3.07;;;;;;;;;;5003459;28;20208;-60
2022/01/31 09:31:47;;;;;;;11.63;3.13;;;;;;;;;;5002437;28;20215;-61
2022/01/31 09:34:19;;;;;;;6.70;2.33;;;;;;;;;;5005950;28;20247;-61
2022/01/31 09:36:48;;;;;;;8.10;2.97;;;;;;;;;;5007529;28;20213;-62
2022/01/31 09:39:16;;;;;;;6.87;2.43;;;;;;;;;;5003006;28;20208;-62
2022/01/31 09:41:47;;;;;;;9.07;2.60;;;;;;;;;;5005322;28;20677;-61
2022/01/31 09:44:43;;;;;;;7.70;2.50;;;;;;;;;;5000934;28;21106;-61
2022/01/31 09:47:24;;;;;;;5.77;1.77;;;;;;;;;;4999424;28;20306;-61
2022/01/31 09:49:55;;;;;;;8.13;2.47;;;;;;;;;;4993812;28;20204;-61
2022/01/31 09:52:25;;;;;;;8.60;2.57;;;;;;;;;;4999574;28;20235;-61
2022/01/31 09:54:55;;;;;;;7.30;2.53;;;;;;;;;;4992607;28;20199;-61
2022/01/31 09:57:25;;;;;;;7.67;2.80;;;;;;;;;;5005150;28;20231;-63
2022/01/31 09:59:54;;;;;;;8.00;2.47;;;;;;;;;;5006242;28;20625;-63
2022/01/31 10:02:27;;;;;;;8.77;2.20;;;;;;;;;;5004490;28;20707;-61
2022/01/31 10:04:59;;;;;;;10.33;2.70;;;;;;;;;;4987596;28;20214;-62
2022/01/31 10:07:47;;;;;;;8.50;2.93;;;;;;;;;;5007278;28;20823;-61
2022/01/31 10:10:26;;;;;;;9.33;3.67;;;;;;;;;;5005488;28;20645;-63
2022/01/31 10:18:21;;;;;;;8.30;2.77;;;;;;;;;;5008113;28;20213;-61
2022/01/31 10:21:11;;;;;;;11.53;3.30;;;;;;;;;;5002030;28;20506;-61
2022/01/31 10:23:44;;;;;;;7.83;2.83;;;;;;;;;;5000328;28;20199;-63
2022/01/31 10:26:32;;;;;;;11.10;3.33;;;;;;;;;;5005680;28;20231;-61
2022/01/31 10:29:20;;;;;;;10.13;3.43;;;;;;;;;;5003515;28;20203;-61
2022/01/31 10:32:17;;;;;;;10.93;3.97;;;;;;;;;;5005132;28;20214;-61
2022/01/31 10:34:55;;;;;;;11.57;4.07;;;;;;;;;;4996870;28;20314;-61
2022/01/31 10:37:30;;;;;;;8.33;3.27;;;;;;;;;;5003916;28;20258;-61
2022/01/31 10:54:40;;;;;;;11.23;4.03;;;;;;;;;;5007551;28;20211;-65
2022/01/31 10:57:21;;;;;;;11.87;3.60;;;;;;;;;;4996564;28;20853;-65
2022/01/31 11:00:00;;;;;;;12.93;3.70;;;;;;;;;;5004028;28;20296;-65
2022/01/31 11:02:31;;;;;;;11.73;4.03;;;;;;;;;;4990222;28;20191;-65
2022/01/31 11:05:21;;;;;;;9.83;3.53;;;;;;;;;;5005416;28;20215;-65
2022/01/31 11:07:51;;;;;;;11.33;3.37;;;;;;;;;;5005679;28;20192;-65
2022/01/31 11:10:28;;;;;;;10.73;3.97;;;;;;;;;;5004128;28;20642;-65
2022/01/31 11:12:58;;;;;;;11.57;3.87;;;;;;;;;;4991070;28;20219;-64
2022/01/31 11:15:27;;;;;;;13.53;4.30;;;;;;;;;;4990531;28;20219;-63
2022/01/31 11:18:00;;;;;;;10.43;3.83;;;;;;;;;;5005843;28;20307;-63
2022/01/31 11:20:33;;;;;;;14.43;4.40;;;;;;;;;;4988643;28;20347;-63
2022/01/31 11:23:03;;;;;;;12.60;3.90;;;;;;;;;;5009749;28;20220;-63
2022/01/31 11:25:34;;;;;;;12.93;4.67;;;;;;;;;;5006208;28;20196;-61
2022/01/31 11:28:05;;;;;;;12.20;3.73;;;;;;;;;;5006329;28;20215;-61
2022/01/31 11:30:35;;;;;;;13.87;3.87;;;;;;;;;;5006417;28;20230;-63
2022/01/31 11:33:04;;;;;;;9.20;3.37;;;;;;;;;;5004470;28;20254;-63
2022/01/31 11:35:36;;;;;;;10.47;3.70;;;;;;;;;;5003701;28;20610;-64
2022/01/31 11:38:09;;;;;;;11.27;4.10;;;;;;;;;;5004715;28;20188;-64
2022/01/31 11:40:38;;;;;;;13.07;3.67;;;;;;;;;;5008177;28;20188;-63
2022/01/31 11:43:07;;;;;;;13.30;4.17;;;;;;;;;;4972924;28;20203;-63
2022/01/31 11:45:41;;;;;;;11.93;4.20;;;;;;;;;;4999993;28;20848;-62
2022/01/31 11:48:27;;;;;;;16.40;4.20;;;;;;;;;;5017136;28;20195;-62
2022/01/31 11:51:05;;;;;;;13.77;4.13;;;;;;;;;;5005598;28;20222;-61
2022/01/31 11:53:39;;;;;;;12.57;3.97;;;;;;;;;;5003613;28;20258;-61
2022/01/31 11:56:20;;;;;;;13.50;4.00;;;;;;;;;;4998844;28;20198;-63
2022/01/31 11:58:53;;;;;;;13.90;4.13;;;;;;;;;;5003043;28;20207;-63
2022/01/31 12:01:24;;;;;;;11.37;3.90;;;;;;;;;;5006635;28;20199;-62
2022/01/31 12:04:00;;;;;;;13.87;4.00;;;;;;;;;;4992279;28;20207;-61
2022/01/31 12:06:37;;;;;;;10.63;3.80;;;;;;;;;;5005002;28;20204;-64
2022/01/31 12:09:16;;;;;;;9.67;3.47;;;;;;;;;;5000985;28;20286;-64
2022/01/31 12:11:54;;;;;;;9.70;3.53;;;;;;;;;;5011243;28;20570;-64
2022/01/31 12:14:41;;;;;;;11.07;3.93;;;;;;;;;;4993307;28;20226;-64
2022/01/31 12:17:33;;;;;;;11.73;3.63;;;;;;;;;;4993391;28;20246;-63
2022/01/31 12:20:15;;;;;;;11.73;4.00;;;;;;;;;;5003604;28;20669;-63
2022/01/31 12:22:52;;;;;;;11.90;3.70;;;;;;;;;;4986947;28;20274;-63
2022/01/31 12:25:32;;;;;;;9.07;3.60;;;;;;;;;;5007766;28;20211;-63
2022/01/31 12:28:26;;;;;;;8.80;3.13;;;;;;;;;;5004180;28;20207;-63
2022/01/31 12:30:55;;;;;;;12.33;3.93;;;;;;;;;;5009397;28;20266;-61
2022/01/31 12:33:41;;;;;;;14.10;5.20;;;;;;;;;;5002214;28;20207;-61
2022/01/31 12:36:15;;;;;;;12.00;3.83;;;;;;;;;;5019696;28;20267;-61
2022/01/31 12:38:46;;;;;;;14.37;4.77;;;;;;;;;;5005127;28;20200;-61
2022/01/31 12:41:30;;;;;;;19.40;4.70;;;;;;;;;;5003771;28;20239;-61
2022/01/31 12:44:19;;;;;;;15.03;4.90;;;;;;;;;;4994209;28;20308;-61
2022/01/31 12:46:51;;;;;;;18.97;5.07;;;;;;;;;;5022427;28;20251;-63
2022/01/31 12:49:28;;;;;;;16.63;5.37;;;;;;;;;;5014510;28;20210;-64
2022/01/31 12:52:03;;;;;;;15.87;5.27;;;;;;;;;;5024768;28;20203;-62
2022/01/31 12:54:38;;;;;;;19.20;6.20;;;;;;;;;;5027621;28;20206;-61
2022/01/31 12:57:15;;;;;;;19.60;6.33;;;;;;;;;;5020283;28;20214;-61
2022/01/31 12:59:49;;;;;;;15.33;5.23;;;;;;;;;;5018255;28;20201;-62
2022/01/31 13:02:22;;;;;;;16.40;6.07;;;;;;;;;;5025920;28;20214;-62
2022/01/31 13:04:52;;;;;;;19.60;5.47;;;;;;;;;;5028636;28;20198;-61
2022/01/31 13:07:21;;;;;;;17.47;5.27;;;;;;;;;;5026503;28;20230;-61
2022/01/31 13:10:07;;;;;;;17.13;5.23;;;;;;;;;;5026518;28;20210;-61
2022/01/31 13:12:40;;;;;;;13.90;4.73;;;;;;;;;;5029297;28;20226;-63
2022/01/31 13:15:08;;;;;;;15.10;4.70;;;;;;;;;;5026330;28;20215;-63
2022/01/31 13:17:45;;;;;;;14.23;4.50;;;;;;;;;;5026487;28;20780;-63
2022/01/31 13:20:18;;;;;;;15.13;4.97;;;;;;;;;;5027280;28;20202;-63
2022/01/31 13:23:10;;;;;;;10.57;4.53;;;;;;;;;;5008321;28;20218;-63
2022/01/31 13:25:38;;;;;;;14.30;4.47;;;;;;;;;;5010864;28;20203;-63
2022/01/31 13:28:12;;;;;;;14.57;5.13;;;;;;;;;;5023808;28;20230;-63
2022/01/31 13:30:42;;;;;;;13.43;4.63;;;;;;;;;;5025718;28;20203;-62
2022/01/31 13:33:12;;;;;;;11.23;3.60;;;;;;;;;;5022753;28;20203;-62
2022/01/31 13:35:47;;;;;;;13.80;4.20;;;;;;;;;;5010309;28;20230;-63
2022/01/31 13:38:21;;;;;;;9.53;3.93;;;;;;;;;;5034477;28;20202;-64
2022/01/31 13:40:54;;;;;;;14.53;4.83;;;;;;;;;;5027272;28;20194;-61
2022/01/31 13:43:29;;;;;;;10.70;3.80;;;;;;;;;;5030880;28;20215;-61
2022/01/31 13:46:29;;;;;;;13.80;4.30;;;;;;;;;;5025452;28;20226;-61
2022/01/31 13:51:51;;;;;;;11.67;5.13;;;;;;;;;;5026334;28;20255;-62
2022/01/31 13:54:23;;;;;;;13.80;4.57;;;;;;;;;;5014886;28;20242;-61
2022/01/31 13:56:54;;;;;;;12.33;4.40;;;;;;;;;;5022328;28;20678;-61
2022/01/31 13:59:44;;;;;;;12.90;4.23;;;;;;;;;;5023877;28;20703;-61
2022/01/31 14:02:17;;;;;;;14.70;4.40;;;;;;;;;;5024320;28;20195;-61
2022/01/31 14:04:51;;;;;;;11.63;4.70;;;;;;;;;;5025240;28;20205;-61
2022/01/31 14:07:32;;;;;;;15.57;4.50;;;;;;;;;;5026492;28;20222;-61
2022/01/31 14:09:59;;;;;;;11.07;3.90;;;;;;;;;;5000012;28;20206;-60
2022/01/31 14:12:33;;;;;;;14.40;4.47;;;;;;;;;;5027576;28;20199;-60
2022/01/31 14:15:07;;;;;;;10.30;4.13;;;;;;;;;;5018915;28;20269;-60
2022/01/31 14:17:39;;;;;;;11.63;4.47;;;;;;;;;;5012522;28;20199;-63
2022/01/31 14:20:11;;;;;;;12.83;4.30;;;;;;;;;;5002665;28;20281;-62
2022/01/31 14:22:41;;;;;;;12.10;5.17;;;;;;;;;;5007548;28;20212;-63
2022/01/31 14:25:19;;;;;;;14.50;4.60;;;;;;;;;;5018073;28;20203;-63
2022/01/31 14:27:52;;;;;;;14.90;4.83;;;;;;;;;;5027822;28;20253;-63
2022/01/31 14:30:24;;;;;;;13.23;4.53;;;;;;;;;;5020787;28;20217;-66
2022/01/31 14:33:01;;;;;;;14.07;4.73;;;;;;;;;;5015884;28;20520;-63
2022/01/31 14:35:33;;;;;;;12.80;4.60;;;;;;;;;;5029968;28;20664;-63
2022/01/31 14:38:20;;;;;;;16.40;4.70;;;;;;;;;;5026897;28;20203;-63
2022/01/31 14:49:26;;;;;;;13.93;5.40;;;;;;;;;;5009312;28;20214;-63
2022/01/31 14:52:04;;;;;;;15.83;4.60;;;;;;;;;;5028056;28;20198;-63
2022/01/31 14:54:41;;;;;;;16.03;4.80;;;;;;;;;;5029209;28;20219;-63
2022/01/31 14:57:13;;;;;;;15.23;5.67;;;;;;;;;;5018725;28;20219;-64
2022/01/31 14:59:52;;;;;;;14.00;4.20;;;;;;;;;;5024529;28;20226;-63
2022/01/31 15:02:25;;;;;;;14.23;4.37;;;;;;;;;;5026593;28;20195;-63
2022/01/31 15:05:09;;;;;;;13.50;4.27;;;;;;;;;;5019520;28;20207;-63
2022/01/31 15:07:41;;;;;;;14.67;5.00;;;;;;;;;;5025983;28;20207;-64
2022/01/31 15:10:11;;;;;;;11.57;5.00;;;;;;;;;;5007692;28;20706;-65
2022/01/31 15:12:41;;;;;;;14.63;4.60;;;;;;;;;;5008205;28;20222;-65
2022/01/31 15:15:12;;;;;;;13.17;4.27;;;;;;;;;;4999448;28;20222;-66
2022/01/31 15:17:46;;;;;;;11.50;4.43;;;;;;;;;;5025087;28;20190;-67
2022/01/31 15:20:20;;;;;;;14.60;4.50;;;;;;;;;;5024737;28;20229;-65
2022/01/31 15:22:55;;;;;;;11.77;4.63;;;;;;;;;;5003830;28;20215;-65
2022/01/31 15:25:27;;;;;;;16.40;5.27;;;;;;;;;;5025613;28;20210;-63
2022/01/31 15:28:09;;;;;;;12.60;4.80;;;;;;;;;;5026403;28;20881;-63
2022/01/31 15:30:40;;;;;;;14.30;4.77;;;;;;;;;;5023977;28;20206;-64
2022/01/31 15:33:11;;;;;;;20.87;5.77;;;;;;;;;;5027446;28;20687;-63
2022/01/31 15:35:44;;;;;;;24.30;5.90;;;;;;;;;;5024919;28;20230;-61
2022/01/31 15:38:14;;;;;;;16.60;5.63;;;;;;;;;;5025214;28;20226;-61
2022/01/31 15:40:47;;;;;;;15.77;4.57;;;;;;;;;;5025669;28;20612;-64
2022/01/31 15:43:19;;;;;;;15.00;4.93;;;;;;;;;;5017670;28;20207;-64
2022/01/31 15:46:11;;;;;;;11.23;4.30;;;;;;;;;;5007589;28;20203;-64
2022/01/31 15:48:43;;;;;;;12.80;4.80;;;;;;;;;;5019046;28;20218;-64
2022/01/31 15:51:13;;;;;;;12.07;4.40;;;;;;;;;;5024030;28;20199;-62
2022/01/31 15:53:43;;;;;;;13.93;4.97;;;;;;;;;;5028286;28;20191;-62